Anamur, Turkey
Current Conditions -  °F | °C
As of 6:35 AM on Saturday 25 Oct 2014 (Local Time) from LCEN Reporting Station
Haze Haze  
Wind Chill: 61°   Ceiling: 800
Heat Index: 61°   Visibility: 3mi
Dew Point: 59°   Wind: 3mph
Humidity: 94%   Direction: 90°E
Pressure: 29.97"   Gusts: NA
Location:  36.08°N, 32.84°E
Report Text: LCEN 250335Z 09003KT 5000 BR BKN008 16/15 Q1015 NOSIG RMK RWY1109004KT
Loading
Personal Weather Stations






























Interactive Weather Map
Tropical Storm Tracking
New forecast layout! Learn more

10-Day Weather Forecast

Advertisements
Track Severe Weather on mobile